Time;durP1;ratioP1;P1;durP2;ratioP2;P2;SDS_P1;SDS_P2;PMS_P1;PMS_P2;Temp;Humidity;BMP_temperature;BMP_pressure;BME280_temperature;BME280_humidity;BME280_pressure;Samples;Min_cycle;Max_cycle;Signal;HPM_P1;HPM_P2
2022/10/23 00:00:48;;;;;;;10.98;4.63;;;12.60;45.30;;;;;;7391281;19;20039;-67
2022/10/23 00:03:17;;;;;;;7.63;5.15;;;12.70;45.70;;;;;;7392425;19;20010;-67
2022/10/23 00:05:47;;;;;;;10.20;5.05;;;12.60;44.90;;;;;;7392369;19;20018;-66
2022/10/23 00:08:20;;;;;;;9.40;5.03;;;12.50;45.00;;;;;;7390604;19;20094;-66
2022/10/23 00:10:49;;;;;;;11.23;5.55;;;12.50;45.80;;;;;;7391337;19;20030;-66
2022/10/23 00:13:19;;;;;;;13.85;4.90;;;12.50;46.40;;;;;;7391168;19;20021;-66
2022/10/23 00:15:49;;;;;;;11.32;5.00;;;12.40;46.50;;;;;;7391669;19;20037;-67
2022/10/23 00:18:39;;;;;;;11.25;5.00;;;12.30;46.20;;;;;;7397387;19;20331;-67
2022/10/23 00:21:10;;;;;;;6.90;4.90;;;12.20;46.70;;;;;;7399222;19;20490;-67
2022/10/23 00:23:43;;;;;;;9.27;4.68;;;12.20;47.80;;;;;;7399173;19;20018;-67
2022/10/23 00:26:14;;;;;;;12.70;5.47;;;12.10;48.50;;;;;;7398021;19;20142;-67
2022/10/23 00:28:45;;;;;;;11.95;5.85;;;12.10;49.30;;;;;;7396965;19;20078;-67
2022/10/23 00:31:15;;;;;;;9.13;5.90;;;12.20;51.20;;;;;;7399166;19;20038;-66
2022/10/23 00:33:45;;;;;;;12.50;5.40;;;12.10;50.30;;;;;;7399333;19;20483;-68
2022/10/23 00:36:17;;;;;;;10.05;5.55;;;12.10;50.40;;;;;;7395913;19;20011;-67
2022/10/23 00:38:50;;;;;;;13.38;5.88;;;12.00;50.50;;;;;;7396497;19;20030;-67
2022/10/23 00:41:23;;;;;;;7.80;4.93;;;12.00;50.70;;;;;;7398755;19;20038;-66
2022/10/23 00:44:07;;;;;;;9.30;5.05;;;11.90;50.90;;;;;;7399003;19;20010;-67
2022/10/23 00:46:37;;;;;;;13.18;5.10;;;11.90;51.10;;;;;;7395993;19;20470;-67
2022/10/23 00:49:09;;;;;;;13.70;5.30;;;12.00;51.50;;;;;;7395702;19;20355;-67
2022/10/23 00:51:42;;;;;;;9.65;5.47;;;12.00;52.50;;;;;;7397697;19;20042;-67
2022/10/23 00:54:18;;;;;;;8.32;4.65;;;12.00;51.90;;;;;;7399269;19;20006;-67
2022/10/23 00:56:58;;;;;;;9.13;4.82;;;12.00;52.20;;;;;;7395542;19;20011;-68
2022/10/23 00:59:28;;;;;;;9.63;5.35;;;11.90;52.50;;;;;;7395217;19;20014;-65
2022/10/23 01:01:58;;;;;;;7.68;4.82;;;11.90;53.20;;;;;;7398559;19;20010;-67
2022/10/23 01:04:29;;;;;;;9.13;5.00;;;11.90;53.10;;;;;;7397192;19;20096;-67
2022/10/23 01:07:06;;;;;;;7.32;5.10;;;11.90;53.50;;;;;;7395266;19;20471;-67
2022/10/23 01:09:44;;;;;;;7.15;4.60;;;11.90;53.40;;;;;;7395403;19;20475;-67
2022/10/23 01:12:22;;;;;;;7.57;4.53;;;11.90;53.80;;;;;;7398565;19;20034;-67
2022/10/23 01:15:02;;;;;;;10.48;5.72;;;11.90;53.80;;;;;;7397222;19;20006;-67
2022/10/23 01:17:38;;;;;;;8.88;4.70;;;11.90;53.70;;;;;;7394803;19;20014;-68
2022/10/23 01:20:26;;;;;;;9.73;4.93;;;11.90;54.00;;;;;;7396999;19;20018;-67
2022/10/23 01:23:23;;;;;;;10.43;5.78;;;11.90;54.00;;;;;;7397188;19;20022;-68
2022/10/23 01:26:15;;;;;;;7.93;4.88;;;11.90;54.10;;;;;;7396732;19;20018;-68
2022/10/23 01:28:52;;;;;;;11.30;5.55;;;11.90;54.50;;;;;;7395201;19;20025;-68
2022/10/23 01:31:27;;;;;;;11.05;6.03;;;11.90;54.70;;;;;;7397426;19;20014;-68
2022/10/23 01:34:01;;;;;;;11.70;4.97;;;11.90;54.50;;;;;;7397448;19;20022;-68
2022/10/23 01:36:34;;;;;;;9.60;5.25;;;11.90;54.70;;;;;;7393270;19;20462;-68
2022/10/23 01:39:08;;;;;;;9.65;6.20;;;12.00;55.10;;;;;;7395644;19;20375;-67
2022/10/23 01:41:44;;;;;;;8.00;5.03;;;12.00;54.40;;;;;;7396655;19;20035;-67
2022/10/23 01:44:23;;;;;;;6.03;4.90;;;12.00;53.80;;;;;;7397611;19;20010;-68
2022/10/23 01:46:55;;;;;;;6.78;5.43;;;12.00;53.30;;;;;;7394279;19;20026;-67
2022/10/23 01:49:26;;;;;;;8.10;5.65;;;12.10;52.90;;;;;;7393737;19;20014;-67
2022/10/23 01:51:59;;;;;;;9.98;5.50;;;12.00;52.60;;;;;;7396140;19;20006;-67
2022/10/23 01:54:33;;;;;;;9.25;5.45;;;12.00;52.10;;;;;;7395681;19;20031;-67
2022/10/23 01:57:04;;;;;;;9.65;5.40;;;12.00;51.90;;;;;;7392989;19;20014;-67
2022/10/23 01:59:41;;;;;;;7.47;5.38;;;12.00;52.10;;;;;;7393847;19;20034;-68
2022/10/23 02:02:12;;;;;;;9.18;5.47;;;12.00;51.80;;;;;;7396505;19;20014;-68
2022/10/23 02:04:49;;;;;;;16.42;6.22;;;12.10;51.40;;;;;;7396528;19;20591;-68
2022/10/23 02:07:19;;;;;;;9.40;5.53;;;12.10;50.90;;;;;;7393711;19;20022;-67
2022/10/23 02:09:49;;;;;;;12.73;5.90;;;11.90;50.70;;;;;;7393940;19;20475;-68
2022/10/23 02:12:28;;;;;;;9.50;5.65;;;11.90;51.00;;;;;;7395832;19;20010;-67
2022/10/23 02:15:06;;;;;;;8.57;5.45;;;11.80;51.10;;;;;;7395856;19;20010;-67
2022/10/23 02:17:44;;;;;;;8.00;5.95;;;11.70;51.40;;;;;;7392595;19;20018;-67
2022/10/23 02:20:21;;;;;;;9.18;6.82;;;11.60;51.70;;;;;;7395459;19;20007;-67
2022/10/23 02:23:00;;;;;;;13.38;6.72;;;11.60;52.50;;;;;;7394958;19;20470;-67
2022/10/23 02:25:35;;;;;;;12.13;6.85;;;11.70;53.00;;;;;;7394572;19;20028;-67
2022/10/23 02:28:06;;;;;;;;;;;11.70;52.50;;;;;;7392579;19;20022;-68
2022/10/23 02:30:43;;;;;;;11.40;6.30;;;11.60;52.50;;;;;;7393897;19;19907;-68
2022/10/23 02:33:14;;;;;;;9.35;6.25;;;11.60;52.70;;;;;;7395302;19;20006;-66
2022/10/23 02:35:45;;;;;;;13.55;6.57;;;11.70;52.70;;;;;;7392376;19;20011;-67
2022/10/23 02:38:41;;;;;;;15.30;6.43;;;11.70;52.50;;;;;;7391511;19;20014;-67
2022/10/23 02:41:37;;;;;;;9.32;6.10;;;11.70;52.10;;;;;;7395447;19;20007;-67
2022/10/23 02:44:22;;;;;;;11.05;5.78;;;11.70;51.70;;;;;;7395455;19;20014;-67
2022/10/23 02:47:02;;;;;;;13.63;6.60;;;11.70;52.00;;;;;;7391049;19;20010;-67
2022/10/23 02:49:39;;;;;;;11.50;7.07;;;11.60;51.90;;;;;;7392138;19;20479;-67
2022/10/23 02:52:14;;;;;;;10.20;6.20;;;11.60;52.40;;;;;;7394656;19;20042;-67
2022/10/23 02:54:55;;;;;;;9.85;6.35;;;11.60;52.30;;;;;;7394263;19;20018;-67
2022/10/23 02:57:30;;;;;;;11.55;6.72;;;11.60;52.10;;;;;;7390372;19;20335;-67
2022/10/23 03:00:06;;;;;;;16.20;6.50;;;11.60;52.40;;;;;;7394438;19;20014;-67
2022/10/23 03:02:43;;;;;;;9.40;6.70;;;11.60;52.80;;;;;;7393532;19;20566;-67
2022/10/23 03:05:16;;;;;;;9.10;6.57;;;11.60;53.00;;;;;;7394810;19;20366;-66
2022/10/23 03:07:47;;;;;;;10.25;7.05;;;11.60;52.90;;;;;;7390222;19;20010;-67
2022/10/23 03:10:17;;;;;;;11.70;5.88;;;11.60;53.20;;;;;;7393518;19;20011;-67
2022/10/23 03:12:47;;;;;;;9.85;6.20;;;11.60;53.30;;;;;;7393408;19;20474;-66
2022/10/23 03:15:18;;;;;;;10.10;6.07;;;11.60;53.40;;;;;;7394446;19;20011;-67
2022/10/23 03:17:50;;;;;;;14.48;6.55;;;11.50;53.40;;;;;;7389666;19;20006;-67
2022/10/23 03:20:20;;;;;;;10.88;5.75;;;11.60;53.70;;;;;;7393403;19;20078;-68
2022/10/23 03:22:50;;;;;;;12.57;6.15;;;11.60;53.60;;;;;;7394337;19;20038;-68
2022/10/23 03:25:19;;;;;;;12.52;6.00;;;11.50;53.50;;;;;;7393117;19;20043;-66
2022/10/23 03:27:49;;;;;;;10.50;5.88;;;11.50;53.60;;;;;;7390157;19;20038;-67
2022/10/23 03:30:19;;;;;;;10.60;5.78;;;11.50;53.70;;;;;;7392694;19;20038;-66
2022/10/23 03:32:52;;;;;;;9.35;5.80;;;11.50;53.90;;;;;;7393056;19;20038;-66
2022/10/23 03:35:22;;;;;;;12.50;5.85;;;11.50;53.80;;;;;;7393491;19;20031;-66
2022/10/23 03:37:51;;;;;;;9.50;5.88;;;11.50;54.00;;;;;;7389198;19;20018;-66
2022/10/23 03:40:21;;;;;;;9.93;6.20;;;11.50;54.00;;;;;;7392593;19;20010;-68
2022/10/23 03:42:51;;;;;;;8.98;5.60;;;11.50;53.70;;;;;;7392897;19;20015;-67
2022/10/23 03:45:21;;;;;;;9.50;5.13;;;11.50;53.40;;;;;;7393163;19;20010;-67
2022/10/23 03:47:53;;;;;;;8.75;5.63;;;11.60;53.20;;;;;;7389387;19;20046;-67
2022/10/23 03:50:23;;;;;;;7.60;5.43;;;11.60;52.80;;;;;;7389639;19;20447;-66
2022/10/23 03:52:53;;;;;;;10.77;5.68;;;11.50;52.30;;;;;;7392569;19;20015;-66
2022/10/23 03:55:24;;;;;;;12.55;5.82;;;11.50;52.30;;;;;;7393106;19;20010;-67
2022/10/23 03:57:54;;;;;;;11.25;5.85;;;11.40;52.80;;;;;;7388981;19;20025;-67
2022/10/23 04:00:24;;;;;;;9.80;5.78;;;11.30;53.00;;;;;;7393166;19;20050;-67
2022/10/23 04:02:56;;;;;;;8.15;6.15;;;11.30;53.50;;;;;;7392554;19;20019;-67
2022/10/23 04:05:26;;;;;;;8.95;6.05;;;11.20;53.30;;;;;;7392250;19;20007;-67
2022/10/23 04:07:56;;;;;;;9.27;5.65;;;11.20;54.10;;;;;;7388908;19;20018;-67
2022/10/23 04:10:26;;;;;;;7.80;5.97;;;11.10;54.50;;;;;;7389479;19;20030;-68
2022/10/23 04:12:55;;;;;;;8.45;5.45;;;11.10;54.50;;;;;;7392403;19;20015;-66
2022/10/23 04:15:25;;;;;;;7.70;6.15;;;11.10;54.50;;;;;;7391083;19;20011;-67
2022/10/23 04:17:57;;;;;;;8.52;6.03;;;11.10;54.80;;;;;;7388776;19;20018;-66
2022/10/23 04:20:27;;;;;;;10.40;6.05;;;11.10;55.20;;;;;;7390253;19;20474;-67
2022/10/23 04:22:57;;;;;;;9.82;6.45;;;11.10;55.30;;;;;;7391565;19;20038;-67
2022/10/23 04:25:27;;;;;;;10.90;6.15;;;11.10;55.40;;;;;;7390795;19;20018;-67
2022/10/23 04:27:57;;;;;;;11.57;6.32;;;11.10;55.40;;;;;;7388407;19;20018;-66
2022/10/23 04:30:26;;;;;;;8.40;5.75;;;11.10;55.60;;;;;;7389637;19;20010;-67
2022/10/23 04:32:59;;;;;;;11.77;6.05;;;11.10;55.50;;;;;;7391345;19;20478;-68
2022/10/23 04:35:29;;;;;;;12.30;6.20;;;11.10;55.70;;;;;;7390549;19;20014;-68
2022/10/23 04:37:58;;;;;;;9.50;5.88;;;11.00;55.40;;;;;;7387393;19;20474;-68
2022/10/23 04:40:28;;;;;;;15.85;7.03;;;11.00;55.70;;;;;;7389501;19;20496;-66
2022/10/23 04:42:58;;;;;;;13.05;6.15;;;11.00;55.90;;;;;;7391787;19;20035;-66
2022/10/23 04:45:28;;;;;;;10.27;5.70;;;11.00;56.10;;;;;;7390174;19;20039;-67
2022/10/23 04:48:00;;;;;;;9.10;6.10;;;11.00;56.20;;;;;;7387368;19;20018;-67
2022/10/23 04:50:30;;;;;;;8.70;5.82;;;11.00;56.30;;;;;;7390710;19;20010;-67
2022/10/23 04:53:00;;;;;;;9.20;6.20;;;11.00;56.60;;;;;;7389371;19;20018;-67
2022/10/23 04:55:29;;;;;;;9.30;5.80;;;11.10;57.00;;;;;;7391337;19;20030;-67
2022/10/23 04:57:59;;;;;;;12.10;6.32;;;11.10;56.60;;;;;;7387159;19;20042;-66
2022/10/23 05:00:29;;;;;;;9.48;5.60;;;11.20;56.30;;;;;;7388278;19;20043;-66
2022/10/23 05:03:01;;;;;;;9.70;6.57;;;11.20;55.90;;;;;;7396784;19;20073;-67
2022/10/23 05:05:31;;;;;;;8.20;5.85;;;11.20;56.00;;;;;;7398245;19;20043;-67
2022/10/23 05:08:01;;;;;;;9.70;5.53;;;11.20;55.50;;;;;;7394032;19;20014;-67
2022/10/23 05:10:31;;;;;;;8.30;5.88;;;11.30;55.40;;;;;;7396677;19;20011;-67
2022/10/23 05:13:01;;;;;;;9.10;5.85;;;11.30;54.70;;;;;;7398260;19;20049;-67
2022/10/23 05:15:31;;;;;;;8.73;5.68;;;11.30;54.70;;;;;;7396738;19;20010;-67
2022/10/23 05:18:10;;;;;;;7.90;5.28;;;11.30;54.60;;;;;;7393578;19;20494;-66
2022/10/23 05:20:42;;;;;;;8.60;5.10;;;11.30;54.60;;;;;;7396880;19;20034;-66
2022/10/23 05:23:13;;;;;;;8.60;5.65;;;11.30;54.70;;;;;;7396093;19;20376;-67
2022/10/23 05:25:42;;;;;;;9.68;5.28;;;11.40;54.70;;;;;;7396296;19;20038;-66
2022/10/23 05:28:12;;;;;;;12.85;5.53;;;11.40;54.20;;;;;;7392552;19;20563;-67
2022/10/23 05:30:42;;;;;;;8.00;4.78;;;11.40;54.10;;;;;;7395876;19;20014;-67
2022/10/23 05:33:15;;;;;;;7.97;4.60;;;11.60;54.10;;;;;;7397872;19;20010;-67
2022/10/23 05:35:46;;;;;;;8.43;4.30;;;11.60;52.00;;;;;;7396209;19;20352;-67
2022/10/23 05:38:17;;;;;;;6.43;4.22;;;11.60;50.90;;;;;;7393234;19;20466;-68
2022/10/23 05:40:47;;;;;;;11.07;4.18;;;11.70;50.20;;;;;;7395849;19;20015;-66
2022/10/23 05:43:16;;;;;;;10.10;4.13;;;11.70;49.30;;;;;;7397162;19;20038;-66
2022/10/23 05:45:46;;;;;;;8.50;4.50;;;11.70;48.90;;;;;;7395947;19;20015;-67
2022/10/23 05:48:19;;;;;;;7.03;4.30;;;11.70;48.30;;;;;;7394992;19;20018;-68
2022/10/23 05:51:08;;;;;;;11.32;4.05;;;11.70;47.50;;;;;;7395792;19;20011;-68
2022/10/23 05:53:37;;;;;;;12.80;3.88;;;11.70;47.40;;;;;;7396353;19;20034;-67
2022/10/23 05:56:11;;;;;;;6.30;3.67;;;11.80;47.00;;;;;;7395939;19;20018;-67
2022/10/23 05:58:41;;;;;;;6.10;3.80;;;11.80;46.20;;;;;;7392018;19;20378;-67
2022/10/23 06:01:13;;;;;;;8.00;3.78;;;11.80;46.40;;;;;;7396086;19;20011;-68
2022/10/23 06:03:45;;;;;;;6.13;3.90;;;11.70;46.20;;;;;;7395821;19;20027;-66
2022/10/23 06:06:15;;;;;;;9.27;3.90;;;11.70;46.30;;;;;;7396014;19;20030;-66
2022/10/23 06:08:45;;;;;;;7.90;3.78;;;11.70;46.50;;;;;;7393295;19;20019;-66
2022/10/23 06:11:17;;;;;;;5.50;3.65;;;11.70;46.50;;;;;;7395600;19;20507;-68
2022/10/23 06:13:47;;;;;;;10.82;4.22;;;11.70;46.80;;;;;;7393317;19;20006;-68
2022/10/23 06:16:19;;;;;;;8.63;4.15;;;11.70;46.90;;;;;;7395282;19;20508;-67
2022/10/23 06:18:52;;;;;;;11.90;4.10;;;11.70;46.80;;;;;;7392023;19;20018;-66
2022/10/23 06:21:22;;;;;;;8.15;4.65;;;11.80;46.20;;;;;;7395753;19;20011;-67
2022/10/23 06:23:52;;;;;;;12.25;4.40;;;11.80;45.90;;;;;;7395405;19;20482;-67
2022/10/23 06:26:21;;;;;;;6.68;4.28;;;11.90;45.70;;;;;;7394769;19;20018;-67
2022/10/23 06:28:51;;;;;;;7.65;5.53;;;11.90;45.30;;;;;;7392883;19;20520;-65
2022/10/23 06:31:25;;;;;;;9.07;5.07;;;11.90;45.00;;;;;;7394840;19;20007;-67
2022/10/23 06:33:59;;;;;;;10.57;5.03;;;11.90;44.20;;;;;;7395309;19;20458;-66
2022/10/23 06:36:29;;;;;;;8.15;4.43;;;11.90;43.60;;;;;;7392033;19;20014;-67
2022/10/23 06:38:58;;;;;;;8.13;4.68;;;11.90;43.10;;;;;;7391808;19;20394;-67
2022/10/23 06:41:48;;;;;;;6.45;4.65;;;12.00;43.30;;;;;;7394927;19;20470;-67
2022/10/23 06:44:18;;;;;;;8.23;4.25;;;12.00;43.10;;;;;;7394926;19;20010;-67
2022/10/23 06:46:48;;;;;;;8.65;4.38;;;12.00;43.10;;;;;;7392644;19;20014;-66
2022/10/23 06:49:20;;;;;;;10.38;4.28;;;12.10;43.10;;;;;;7392703;19;20526;-68
2022/10/23 06:51:50;;;;;;;6.00;4.30;;;12.10;43.10;;;;;;7391875;19;20035;-68
2022/10/23 06:54:20;;;;;;;9.38;3.67;;;12.20;41.60;;;;;;7393365;19;20036;-67
2022/10/23 06:56:50;;;;;;;6.18;3.70;;;12.20;40.40;;;;;;7391975;19;20014;-67
2022/10/23 06:59:21;;;;;;;7.65;4.10;;;12.30;39.70;;;;;;7390944;19;20015;-65
2022/10/23 07:01:50;;;;;;;5.57;3.97;;;12.40;39.20;;;;;;7393726;19;20712;-66
2022/10/23 07:04:23;;;;;;;7.85;4.30;;;12.40;38.70;;;;;;7393226;19;20010;-66
2022/10/23 07:06:52;;;;;;;6.82;3.90;;;12.50;38.60;;;;;;7391752;19;20038;-67
2022/10/23 07:09:22;;;;;;;8.18;4.32;;;12.50;37.00;;;;;;7392428;19;20017;-67
2022/10/23 07:11:52;;;;;;;5.60;3.92;;;12.50;37.40;;;;;;7393698;19;20035;-67
2022/10/23 07:14:22;;;;;;;8.40;3.85;;;12.50;37.50;;;;;;7393977;19;20011;-66
2022/10/23 07:16:51;;;;;;;7.68;4.05;;;12.60;37.30;;;;;;7389970;19;20042;-67
2022/10/23 07:19:24;;;;;;;7.88;4.10;;;12.60;36.30;;;;;;7391097;19;20014;-66
2022/10/23 07:21:53;;;;;;;7.60;4.05;;;12.60;34.50;;;;;;7393364;19;20035;-66
2022/10/23 07:24:23;;;;;;;9.68;3.88;;;12.60;35.00;;;;;;7392724;19;20007;-66
2022/10/23 07:26:53;;;;;;;5.93;4.18;;;12.70;35.10;;;;;;7390648;19;20015;-66
2022/10/23 07:29:23;;;;;;;6.80;3.75;;;12.80;34.10;;;;;;7391841;19;20014;-66
2022/10/23 07:31:52;;;;;;;7.95;3.75;;;12.80;32.20;;;;;;7393692;19;20011;-66
2022/10/23 07:34:25;;;;;;;10.25;3.90;;;12.90;31.30;;;;;;7393892;19;20006;-68
2022/10/23 07:36:55;;;;;;;7.68;3.80;;;13.10;31.00;;;;;;7391268;19;20010;-67
2022/10/23 07:39:25;;;;;;;4.82;3.47;;;13.20;29.80;;;;;;7388218;19;20017;-68
2022/10/23 07:41:55;;;;;;;6.07;3.22;;;13.20;28.40;;;;;;7393286;19;20046;-67
2022/10/23 07:44:25;;;;;;;6.63;3.30;;;13.30;27.70;;;;;;7389994;19;20010;-67
2022/10/23 07:46:56;;;;;;;6.68;3.88;;;13.30;26.50;;;;;;7390716;19;20093;-67
2022/10/23 07:49:28;;;;;;;5.50;3.15;;;13.40;26.30;;;;;;7389793;19;20052;-67
2022/10/23 07:51:58;;;;;;;6.18;3.22;;;13.50;25.10;;;;;;7392029;19;20031;-66
2022/10/23 07:54:28;;;;;;;5.40;3.13;;;13.70;24.60;;;;;;7391632;19;20555;-67
2022/10/23 07:56:58;;;;;;;5.05;2.90;;;13.70;23.60;;;;;;7390049;19;20015;-67
2022/10/23 07:59:27;;;;;;;4.35;2.40;;;13.90;21.80;;;;;;7389185;19;20007;-67
2022/10/23 08:01:57;;;;;;;8.90;2.42;;;14.00;21.20;;;;;;7392339;19;20034;-68
2022/10/23 08:04:30;;;;;;;3.53;2.40;;;14.10;19.30;;;;;;7390805;19;20117;-67
2022/10/23 08:07:00;;;;;;;4.05;2.40;;;14.30;18.00;;;;;;7388001;19;20039;-67
2022/10/23 08:09:29;;;;;;;4.13;3.53;;;14.30;17.20;;;;;;7388792;19;20010;-67
2022/10/23 08:11:59;;;;;;;3.55;2.08;;;14.40;16.10;;;;;;7392019;19;20047;-66
2022/10/23 08:14:29;;;;;;;4.45;2.50;;;14.50;15.50;;;;;;7391497;19;20007;-66
2022/10/23 08:16:59;;;;;;;3.85;2.35;;;14.50;14.50;;;;;;7389474;19;20036;-66
2022/10/23 08:19:51;;;;;;;3.17;2.35;;;14.50;13.80;;;;;;7389344;19;20097;-66
2022/10/23 08:22:21;;;;;;;4.07;2.28;;;14.60;13.80;;;;;;7391634;19;20332;-66
2022/10/23 08:24:50;;;;;;;4.28;2.40;;;14.70;12.70;;;;;;7389002;19;20006;-67
2022/10/23 08:27:20;;;;;;;3.95;2.17;;;14.70;12.90;;;;;;7388130;19;20022;-67
2022/10/23 08:29:50;;;;;;;4.22;1.95;;;14.80;11.10;;;;;;7390945;19;20003;-67
2022/10/23 08:32:19;;;;;;;4.10;2.10;;;15.00;11.20;;;;;;7390975;19;20043;-66
2022/10/23 08:34:52;;;;;;;7.28;2.28;;;15.10;10.70;;;;;;7391169;19;20037;-67
2022/10/23 08:37:22;;;;;;;3.40;2.30;;;15.20;9.80;;;;;;7390997;19;20014;-67
2022/10/23 08:39:53;;;;;;;5.28;2.00;;;15.30;9.80;;;;;;7395499;19;20010;-66
2022/10/23 08:42:26;;;;;;;3.33;1.90;;;15.30;9.30;;;;;;7398618;19;20014;-67
2022/10/23 08:45:07;;;;;;;4.53;2.17;;;15.30;9.10;;;;;;7396761;19;20030;-67
2022/10/23 08:47:42;;;;;;;3.75;2.05;;;15.30;8.60;;;;;;7392004;19;20007;-67
2022/10/23 08:50:24;;;;;;;6.78;2.13;;;15.30;9.10;;;;;;7397741;19;20007;-67
2022/10/23 08:52:59;;;;;;;2.95;1.90;;;15.40;9.50;;;;;;7397548;19;20018;-66
2022/10/23 08:55:35;;;;;;;3.53;1.98;;;15.50;8.40;;;;;;7398606;19;20014;-67
2022/10/23 08:58:13;;;;;;;4.20;1.73;;;15.70;8.00;;;;;;7393292;19;20034;-67
2022/10/23 09:00:44;;;;;;;2.30;1.80;;;15.80;7.80;;;;;;7395648;19;20006;-67
2022/10/23 09:03:15;;;;;;;3.88;1.98;;;15.80;5.40;;;;;;7398750;19;20070;-67
2022/10/23 09:05:58;;;;;;;2.92;1.70;;;15.90;4.30;;;;;;7397681;19;20475;-67
2022/10/23 09:08:41;;;;;;;4.78;1.88;;;15.90;4.30;;;;;;7394580;19;20502;-66
2022/10/23 09:11:15;;;;;;;5.97;1.90;;;16.10;3.80;;;;;;7397569;19;20014;-67
2022/10/23 09:14:05;;;;;;;;;;;16.30;3.10;;;;;;7398192;19;20015;-67
2022/10/23 09:16:47;;;;;;;4.13;1.90;;;16.40;2.20;;;;;;7394569;19;19917;-66
2022/10/23 09:19:19;;;;;;;7.53;1.77;;;16.50;1.60;;;;;;7395409;19;20481;-68
2022/10/23 09:21:52;;;;;;;5.20;1.98;;;16.60;1.70;;;;;;7396287;19;20018;-66
2022/10/23 09:24:24;;;;;;;7.78;2.10;;;16.80;1.10;;;;;;7397234;19;20677;-66
2022/10/23 09:26:55;;;;;;;1.88;1.50;;;16.80;1.00;;;;;;7393733;19;20022;-66
2022/10/23 09:29:27;;;;;;;5.00;1.83;;;16.90;1.00;;;;;;7396125;19;20467;-67
2022/10/23 09:31:59;;;;;;;2.50;1.77;;;16.90;1.00;;;;;;7397071;19;20010;-66
2022/10/23 09:34:30;;;;;;;3.28;1.85;;;17.00;1.00;;;;;;7396247;19;20035;-66
2022/10/23 09:37:05;;;;;;;2.45;1.80;;;17.10;1.00;;;;;;7392532;19;20015;-67
2022/10/23 09:39:37;;;;;;;3.42;1.60;;;17.20;1.00;;;;;;7394868;19;20123;-66
2022/10/23 09:42:21;;;;;;;3.35;1.45;;;17.30;1.00;;;;;;7397031;19;20130;-66
2022/10/23 09:44:53;;;;;;;4.13;1.57;;;17.40;1.00;;;;;;7394482;19;20018;-67
2022/10/23 09:47:25;;;;;;;2.13;1.50;;;17.40;1.00;;;;;;7392551;19;20268;-67
2022/10/23 09:49:57;;;;;;;4.45;1.65;;;17.30;1.00;;;;;;7395135;19;20018;-67
2022/10/23 09:52:36;;;;;;;2.80;1.60;;;17.40;1.00;;;;;;7394545;19;20471;-67
2022/10/23 09:55:22;;;;;;;3.92;1.67;;;17.50;1.00;;;;;;7396119;19;20031;-67
2022/10/23 09:57:52;;;;;;;5.10;1.83;;;17.60;1.00;;;;;;7391486;19;20013;-68
2022/10/23 10:00:24;;;;;;;4.97;1.75;;;17.60;1.00;;;;;;7393979;19;20680;-68
2022/10/23 10:02:59;;;;;;;2.58;1.70;;;17.80;1.00;;;;;;7395240;19;20010;-67
2022/10/23 10:05:31;;;;;;;5.53;2.83;;;17.90;1.00;;;;;;7394862;19;20022;-68
2022/10/23 10:08:12;;;;;;;4.63;1.65;;;17.80;1.00;;;;;;7391015;19;20014;-67
2022/10/23 10:10:46;;;;;;;5.10;2.10;;;17.90;1.00;;;;;;7394956;19;20395;-67
2022/10/23 10:13:29;;;;;;;7.32;1.90;;;18.00;1.00;;;;;;7395930;19;20115;-66
2022/10/23 10:16:04;;;;;;;6.03;3.53;;;18.20;1.00;;;;;;7394429;19;20018;-67
2022/10/23 10:18:41;;;;;;;5.82;2.80;;;18.30;1.00;;;;;;7392369;19;20002;-67
2022/10/23 10:21:17;;;;;;;7.85;4.75;;;18.40;1.00;;;;;;7393197;19;20370;-67
2022/10/23 10:23:57;;;;;;;8.38;4.10;;;18.40;1.00;;;;;;7394753;19;20011;-68
2022/10/23 10:26:39;;;;;;;5.32;2.80;;;18.50;1.00;;;;;;7393613;19;20018;-68
2022/10/23 10:29:18;;;;;;;4.82;2.10;;;18.50;1.00;;;;;;7393427;19;20015;-67
2022/10/23 10:31:59;;;;;;;3.72;2.00;;;18.60;1.00;;;;;;7393805;19;20017;-67
2022/10/23 10:34:41;;;;;;;5.25;2.53;;;18.60;1.00;;;;;;7393324;19;20011;-68
2022/10/23 10:37:22;;;;;;;6.25;2.20;;;18.70;1.00;;;;;;7391014;19;20018;-67
2022/10/23 10:40:02;;;;;;;5.80;1.67;;;18.70;1.00;;;;;;7393022;19;20019;-66
2022/10/23 10:42:58;;;;;;;4.68;1.75;;;18.80;1.00;;;;;;7393087;19;20002;-68
2022/10/23 10:45:34;;;;;;;4.30;2.20;;;19.00;1.00;;;;;;7393595;19;19998;-68
2022/10/23 10:48:34;;;;;;;4.03;1.42;;;19.30;1.00;;;;;;7390053;19;20014;-66
2022/10/23 10:51:08;;;;;;;6.60;1.95;;;19.40;1.00;;;;;;7393118;19;20549;-66
2022/10/23 10:53:50;;;;;;;3.70;1.88;;;19.60;1.00;;;;;;7393720;19;20021;-67
2022/10/23 10:56:27;;;;;;;1.95;1.52;;;19.40;1.00;;;;;;7394044;19;20017;-67
2022/10/23 10:59:00;;;;;;;8.45;1.70;;;19.30;1.00;;;;;;7390195;19;20014;-68
2022/10/23 11:01:36;;;;;;;7.93;1.60;;;19.40;1.00;;;;;;7390149;19;20011;-68
2022/10/23 11:04:13;;;;;;;2.25;1.30;;;19.30;1.00;;;;;;7393635;19;20021;-67
2022/10/23 11:06:46;;;;;;;5.53;1.80;;;19.30;1.00;;;;;;7389094;19;20014;-67
2022/10/23 11:09:21;;;;;;;4.43;1.55;;;19.40;1.00;;;;;;7392989;19;20014;-67
2022/10/23 11:11:53;;;;;;;3.95;1.75;;;19.30;1.00;;;;;;7393227;19;20014;-67
2022/10/23 11:14:25;;;;;;;4.60;1.60;;;19.50;1.00;;;;;;7393694;19;20482;-67
2022/10/23 11:17:01;;;;;;;2.70;1.55;;;19.60;1.00;;;;;;7389939;19;20014;-67
2022/10/23 11:19:35;;;;;;;5.22;1.92;;;19.50;1.00;;;;;;7390160;19;20039;-66
2022/10/23 11:22:11;;;;;;;9.07;1.60;;;19.50;1.00;;;;;;7391577;19;20470;-68
2022/10/23 11:25:11;;;;;;;4.13;1.42;;;19.60;1.00;;;;;;7389927;19;20014;-67
2022/10/23 11:27:59;;;;;;;3.42;1.70;;;19.60;1.00;;;;;;7383660;19;20110;-68
2022/10/23 11:30:42;;;;;;;7.07;1.70;;;19.50;1.00;;;;;;7390517;19;20014;-67
2022/10/23 11:33:37;;;;;;;3.33;1.70;;;19.50;1.00;;;;;;7392398;19;20014;-67
2022/10/23 11:36:17;;;;;;;4.85;1.70;;;19.50;1.00;;;;;;7391748;19;20010;-66
2022/10/23 11:38:50;;;;;;;6.47;3.10;;;19.50;1.00;;;;;;7389645;19;20010;-67
2022/10/23 11:41:22;;;;;;;6.57;2.35;;;19.50;1.00;;;;;;7390886;19;20035;-67
2022/10/23 11:44:02;;;;;;;5.40;1.75;;;19.50;1.00;;;;;;7391699;19;20525;-67
2022/10/23 11:46:37;;;;;;;4.60;2.22;;;19.60;1.00;;;;;;7388501;19;20052;-66
2022/10/23 11:49:20;;;;;;;3.22;2.25;;;19.60;1.00;;;;;;7391830;19;20014;-67
2022/10/23 11:52:01;;;;;;;5.78;2.40;;;19.60;1.00;;;;;;7392114;19;20021;-67
2022/10/23 11:54:31;;;;;;;5.80;3.40;;;19.70;1.00;;;;;;7391187;19;20034;-68
2022/10/23 11:57:14;;;;;;;6.93;2.90;;;19.70;1.00;;;;;;7389509;19;20018;-67
2022/10/23 11:59:59;;;;;;;8.48;2.03;;;19.60;1.00;;;;;;7390788;19;20018;-68
2022/10/23 12:02:33;;;;;;;6.43;2.05;;;19.60;1.00;;;;;;7390091;19;20010;-68
2022/10/23 12:05:06;;;;;;;4.38;2.17;;;19.60;1.00;;;;;;7392116;19;20014;-66
2022/10/23 12:07:39;;;;;;;6.38;1.40;;;19.60;1.00;;;;;;7385716;19;20423;-67
2022/10/23 12:10:20;;;;;;;3.50;1.67;;;19.70;1.00;;;;;;7391500;19;20015;-68
2022/10/23 12:12:57;;;;;;;6.68;1.85;;;19.80;1.00;;;;;;7396483;19;20478;-67
2022/10/23 12:15:30;;;;;;;5.43;1.67;;;19.80;1.00;;;;;;7398565;19;20011;-67
2022/10/23 12:18:14;;;;;;;5.18;1.52;;;19.80;1.00;;;;;;7394612;19;20018;-67
2022/10/23 12:20:48;;;;;;;;;;;19.90;1.00;;;;;;7398356;19;20018;-67
2022/10/23 12:23:35;;;;;;;7.32;2.10;;;19.90;1.00;;;;;;7398986;19;19930;-67
2022/10/23 12:26:29;;;;;;;4.75;2.35;;;19.90;1.00;;;;;;7397232;19;20021;-67
2022/10/23 12:29:10;;;;;;;3.20;2.13;;;20.00;1.00;;;;;;7396841;19;20011;-68
2022/10/23 12:31:51;;;;;;;6.88;2.63;;;20.10;1.00;;;;;;7399037;19;20010;-68
2022/10/23 12:34:36;;;;;;;5.50;2.50;;;20.10;1.00;;;;;;7399260;19;20014;-67
2022/10/23 12:37:24;;;;;;;3.33;1.85;;;20.10;1.00;;;;;;7395740;19;20045;-68
2022/10/23 12:39:56;;;;;;;8.32;2.50;;;20.20;1.00;;;;;;7398101;19;20034;-67
2022/10/23 12:42:29;;;;;;;3.65;1.95;;;20.30;1.00;;;;;;7395759;19;20021;-66
2022/10/23 12:45:03;;;;;;;3.65;1.73;;;20.50;1.00;;;;;;7398278;19;20450;-66
2022/10/23 12:47:35;;;;;;;;;;;20.80;1.00;;;;;;7393711;19;20011;-67
2022/10/23 12:50:27;;;;;;;4.82;1.85;;;20.80;1.00;;;;;;7397671;19;19915;-66
2022/10/23 12:52:59;;;;;;;2.08;1.23;;;20.80;1.00;;;;;;7398216;19;20018;-67
2022/10/23 12:55:31;;;;;;;4.07;1.65;;;20.80;1.00;;;;;;7397592;19;20022;-67
2022/10/23 12:58:04;;;;;;;2.92;1.45;;;20.70;1.00;;;;;;7392867;19;20019;-67
2022/10/23 13:00:34;;;;;;;6.45;1.60;;;20.80;1.00;;;;;;7397482;19;20014;-67
2022/10/23 13:03:06;;;;;;;6.63;2.30;;;20.80;1.00;;;;;;7395535;19;20019;-65
2022/10/23 13:05:36;;;;;;;4.22;2.40;;;21.00;1.00;;;;;;7397082;19;20324;-67
2022/10/23 13:08:07;;;;;;;2.90;1.77;;;21.00;1.00;;;;;;7393349;19;20474;-67
2022/10/23 13:10:38;;;;;;;3.67;2.65;;;21.10;1.00;;;;;;7396878;19;20014;-66
2022/10/23 13:13:09;;;;;;;8.48;2.15;;;21.00;1.00;;;;;;7398609;19;20034;-67
2022/10/23 13:15:40;;;;;;;4.28;2.10;;;21.20;1.00;;;;;;7397098;19;20015;-67
2022/10/23 13:18:14;;;;;;;5.72;2.50;;;21.20;1.00;;;;;;7391007;19;20062;-67
2022/10/23 13:20:56;;;;;;;4.95;2.00;;;21.10;1.00;;;;;;7395576;19;20011;-67
2022/10/23 13:23:32;;;;;;;3.30;2.05;;;21.10;1.00;;;;;;7391246;19;20485;-67
2022/10/23 13:26:03;;;;;;;3.83;2.45;;;21.10;1.00;;;;;;7394486;19;20007;-67